Time;durP1;ratioP1;P1;durP2;ratioP2;P2;SDS_P1;SDS_P2;PMS_P1;PMS_P2;Temp;Humidity;BMP_temperature;BMP_pressure;BME280_temperature;BME280_humidity;BME280_pressure;Samples;Min_cycle;Max_cycle;Signal;HPM_P1;HPM_P2
2022/11/28 00:00:31;;;;;;;7.18;3.90;;;4.80;99.90;;;;;;5014750;28;20209;-72
2022/11/28 00:02:58;;;;;;;2.92;2.17;;;4.80;99.90;;;;;;5026744;28;20208;-71
2022/11/28 00:05:25;;;;;;;2.45;1.88;;;4.80;99.90;;;;;;5030637;28;20208;-73
2022/11/28 00:07:52;;;;;;;4.85;2.92;;;4.80;99.90;;;;;;5029337;28;20219;-71
2022/11/28 00:10:19;;;;;;;3.33;2.70;;;4.70;99.90;;;;;;5030659;28;20283;-71
2022/11/28 00:12:45;;;;;;;4.40;2.20;;;4.80;99.90;;;;;;5029480;28;20262;-72
2022/11/28 00:15:13;;;;;;;2.92;2.55;;;4.70;99.90;;;;;;5030503;28;20366;-71
2022/11/28 00:17:41;;;;;;;10.27;2.50;;;4.70;99.90;;;;;;5028682;28;20207;-72
2022/11/28 00:20:08;;;;;;;2.50;2.30;;;4.70;99.90;;;;;;5029819;28;20262;-71
2022/11/28 00:22:35;;;;;;;3.25;1.98;;;4.60;99.90;;;;;;5029422;28;20202;-71
2022/11/28 00:25:01;;;;;;;2.08;1.92;;;4.60;99.90;;;;;;5029028;28;20681;-71
2022/11/28 00:27:28;;;;;;;4.45;4.13;;;4.60;99.90;;;;;;5029570;28;20209;-71
2022/11/28 00:29:55;;;;;;;2.97;2.60;;;4.70;99.90;;;;;;5029672;28;20212;-71
2022/11/28 00:32:22;;;;;;;5.88;1.95;;;4.70;99.90;;;;;;5029270;28;20645;-72
2022/11/28 00:34:50;;;;;;;2.67;2.47;;;4.70;99.90;;;;;;5020543;28;20206;-71
2022/11/28 00:37:17;;;;;;;2.35;2.20;;;4.70;99.90;;;;;;5029214;28;20219;-71
2022/11/28 00:39:44;;;;;;;6.35;3.33;;;4.70;99.90;;;;;;5029236;28;20207;-70
2022/11/28 00:42:11;;;;;;;3.70;2.35;;;4.60;99.90;;;;;;5029137;28;20204;-72
2022/11/28 00:44:37;;;;;;;2.50;2.22;;;4.60;99.90;;;;;;5029125;28;20226;-70
2022/11/28 00:47:04;;;;;;;2.40;1.77;;;4.60;99.90;;;;;;5029293;28;20204;-70
2022/11/28 00:49:31;;;;;;;1.88;1.60;;;4.60;99.90;;;;;;5029221;28;20212;-70
2022/11/28 00:51:59;;;;;;;1.60;1.50;;;4.70;99.90;;;;;;5029308;28;20584;-71
2022/11/28 00:54:26;;;;;;;2.08;1.88;;;4.70;99.90;;;;;;5029060;28;20572;-71
2022/11/28 00:56:53;;;;;;;2.90;2.65;;;4.70;99.90;;;;;;5028550;28;20216;-72
2022/11/28 00:59:19;;;;;;;2.35;2.25;;;4.70;99.90;;;;;;5028523;28;20196;-70
2022/11/28 01:01:46;;;;;;;2.55;2.35;;;4.60;99.90;;;;;;5028413;28;20199;-71
2022/11/28 01:04:16;;;;;;;2.05;1.95;;;4.70;99.90;;;;;;5029076;28;20209;-70
2022/11/28 01:06:45;;;;;;;2.25;1.65;;;4.70;99.90;;;;;;5027997;28;20208;-71
2022/11/28 01:09:15;;;;;;;1.75;1.60;;;4.80;99.90;;;;;;5028981;28;20636;-70
2022/11/28 01:11:43;;;;;;;3.25;2.30;;;4.70;99.90;;;;;;5028404;28;20201;-70
2022/11/28 01:14:10;;;;;;;4.20;2.65;;;4.80;99.90;;;;;;5028917;28;20199;-70
2022/11/28 01:16:37;;;;;;;1.33;1.23;;;4.70;99.90;;;;;;5027845;28;20188;-72
2022/11/28 01:19:04;;;;;;;4.05;1.88;;;4.70;99.90;;;;;;5028848;28;20534;-70
2022/11/28 01:21:31;;;;;;;1.50;1.40;;;4.70;99.90;;;;;;5028526;28;20239;-71
2022/11/28 01:23:58;;;;;;;2.10;2.00;;;4.70;99.90;;;;;;5028604;28;20203;-70
2022/11/28 01:26:28;;;;;;;3.15;2.08;;;4.70;99.90;;;;;;5027788;28;21278;-72
2022/11/28 01:28:55;;;;;;;5.82;2.50;;;4.70;99.90;;;;;;5028511;28;20201;-70
2022/11/28 01:31:24;;;;;;;2.75;2.50;;;4.70;99.90;;;;;;5028756;28;20197;-72
2022/11/28 01:33:52;;;;;;;2.97;2.63;;;4.70;99.90;;;;;;5027910;28;20316;-70
2022/11/28 01:36:19;;;;;;;1.80;1.42;;;4.70;99.90;;;;;;5028386;28;20209;-72
2022/11/28 01:38:47;;;;;;;2.30;2.10;;;4.70;99.90;;;;;;5027700;28;20204;-70
2022/11/28 01:41:15;;;;;;;2.90;2.70;;;4.70;99.90;;;;;;5028131;28;20680;-71
2022/11/28 01:43:58;;;;;;;1.60;1.50;;;4.70;99.90;;;;;;5028103;28;20224;-70
2022/11/28 01:46:25;;;;;;;10.50;1.83;;;4.70;99.90;;;;;;5013386;28;20280;-72
2022/11/28 01:48:53;;;;;;;4.13;2.83;;;4.60;99.90;;;;;;5028163;28;20201;-70
2022/11/28 01:51:20;;;;;;;2.70;2.50;;;4.60;99.90;;;;;;5027133;28;20211;-71
2022/11/28 01:53:48;;;;;;;1.88;1.23;;;4.60;99.90;;;;;;5017109;28;20228;-70
2022/11/28 01:56:20;;;;;;;7.88;1.65;;;4.50;99.90;;;;;;5009637;28;20197;-72
2022/11/28 01:58:52;;;;;;;2.72;2.10;;;4.50;99.90;;;;;;5026706;28;20200;-70
2022/11/28 02:01:23;;;;;;;2.33;2.00;;;4.50;99.90;;;;;;5025333;28;20204;-71
2022/11/28 02:03:51;;;;;;;2.00;1.90;;;4.50;99.90;;;;;;5013475;28;20608;-71
2022/11/28 02:06:20;;;;;;;2.40;2.05;;;4.60;99.90;;;;;;5026685;28;20202;-70
2022/11/28 02:08:50;;;;;;;3.08;2.20;;;4.70;99.90;;;;;;5027800;28;20200;-70
2022/11/28 02:11:38;;;;;;;1.70;1.55;;;4.70;99.90;;;;;;5027978;28;20197;-73
2022/11/28 02:14:17;;;;;;;2.95;1.50;;;4.70;99.90;;;;;;5027129;28;20660;-71
2022/11/28 02:16:57;;;;;;;3.40;2.22;;;4.70;99.90;;;;;;5027025;28;20192;-70
2022/11/28 02:20:03;;;;;;;2.75;2.17;;;4.70;99.90;;;;;;5007774;28;20228;-71
2022/11/28 02:22:37;;;;;;;3.17;2.97;;;4.70;99.90;;;;;;4986571;28;20670;-70
2022/11/28 02:25:28;;;;;;;3.47;3.00;;;4.70;99.90;;;;;;5028087;28;20200;-70
2022/11/28 02:28:20;;;;;;;2.00;1.80;;;4.90;99.90;;;;;;5026797;28;20967;-70
2022/11/28 02:30:57;;;;;;;4.55;3.60;;;4.80;99.90;;;;;;5026991;28;20263;-72
2022/11/28 02:33:27;;;;;;;3.20;2.58;;;4.70;99.90;;;;;;5027014;28;20239;-70
2022/11/28 02:36:04;;;;;;;9.10;2.35;;;4.80;99.90;;;;;;5027590;28;20335;-70
2022/11/28 02:38:46;;;;;;;2.03;1.75;;;4.80;99.90;;;;;;5027333;28;20572;-70
2022/11/28 02:41:22;;;;;;;3.20;1.90;;;4.70;99.90;;;;;;5026777;28;20210;-73
2022/11/28 02:43:55;;;;;;;2.65;2.17;;;4.70;99.90;;;;;;5027238;28;20202;-70
2022/11/28 02:46:28;;;;;;;3.67;3.13;;;4.90;99.90;;;;;;5027173;28;20633;-72
2022/11/28 02:49:03;;;;;;;4.65;2.20;;;4.80;99.90;;;;;;5033425;28;20644;-70
2022/11/28 02:51:35;;;;;;;4.88;3.33;;;4.80;99.90;;;;;;5022246;28;20624;-71
2022/11/28 02:54:05;;;;;;;2.58;1.35;;;4.70;99.90;;;;;;5033698;28;20685;-70
2022/11/28 02:56:32;;;;;;;2.63;2.42;;;4.70;99.90;;;;;;5033470;28;20271;-70
2022/11/28 02:59:00;;;;;;;2.90;1.48;;;4.80;99.90;;;;;;5030323;28;20197;-70
2022/11/28 03:01:32;;;;;;;3.50;2.55;;;4.80;99.90;;;;;;5027240;28;20464;-70
2022/11/28 03:04:17;;;;;;;3.30;2.53;;;4.80;99.90;;;;;;5029531;28;20556;-70
2022/11/28 03:06:58;;;;;;;4.57;1.63;;;4.70;99.90;;;;;;5033470;28;20218;-70
2022/11/28 03:09:38;;;;;;;3.60;2.50;;;4.80;99.90;;;;;;5033747;28;20297;-70
2022/11/28 03:12:19;;;;;;;4.15;3.20;;;4.90;99.90;;;;;;5033301;28;20200;-70
2022/11/28 03:14:54;;;;;;;2.42;1.52;;;4.90;99.90;;;;;;5033305;28;20283;-71
2022/11/28 03:17:32;;;;;;;2.20;1.98;;;4.70;99.90;;;;;;5032928;28;20614;-72
2022/11/28 03:20:16;;;;;;;1.98;1.88;;;4.80;99.90;;;;;;5033640;28;20207;-70
2022/11/28 03:22:53;;;;;;;1.90;1.42;;;4.80;99.90;;;;;;5032977;28;20203;-71
2022/11/28 03:25:28;;;;;;;3.53;2.25;;;4.70;99.90;;;;;;5033838;28;20259;-70
2022/11/28 03:28:01;;;;;;;1.50;1.40;;;4.80;99.90;;;;;;5032770;28;20192;-70
2022/11/28 03:30:32;;;;;;;8.77;2.42;;;4.90;99.90;;;;;;5033607;28;20205;-71
2022/11/28 03:33:02;;;;;;;2.50;2.33;;;4.70;99.90;;;;;;5032842;28;20631;-71
2022/11/28 03:35:36;;;;;;;4.68;4.25;;;4.70;99.90;;;;;;5033227;28;20192;-72
2022/11/28 03:38:07;;;;;;;10.80;3.00;;;4.70;99.90;;;;;;5017644;28;20228;-73
2022/11/28 03:40:39;;;;;;;2.17;1.98;;;4.60;99.90;;;;;;5033403;28;20201;-72
2022/11/28 03:43:11;;;;;;;3.38;2.90;;;4.70;99.90;;;;;;5033263;28;20258;-71
2022/11/28 03:45:41;;;;;;;4.72;2.05;;;4.60;99.90;;;;;;5033551;28;20207;-70
2022/11/28 03:48:12;;;;;;;2.65;1.75;;;4.60;99.90;;;;;;5032952;28;20205;-70
2022/11/28 03:50:47;;;;;;;3.25;1.30;;;4.60;99.90;;;;;;5033455;28;20201;-70
2022/11/28 03:53:18;;;;;;;1.85;1.45;;;4.60;99.90;;;;;;5032593;28;20765;-70
2022/11/28 03:55:52;;;;;;;2.17;1.85;;;4.60;99.90;;;;;;5033324;28;20192;-71
2022/11/28 03:58:27;;;;;;;7.38;4.20;;;4.70;99.90;;;;;;5032045;28;20662;-70
2022/11/28 04:01:02;;;;;;;1.40;1.30;;;4.60;99.90;;;;;;5029223;28;20277;-71
2022/11/28 04:03:42;;;;;;;2.05;1.85;;;4.60;99.90;;;;;;5023619;28;20200;-70
2022/11/28 04:06:19;;;;;;;2.33;1.98;;;4.50;99.90;;;;;;5029702;28;20282;-70
2022/11/28 04:08:52;;;;;;;1.75;1.65;;;4.60;99.90;;;;;;5029551;28;20299;-70
2022/11/28 04:11:22;;;;;;;4.30;2.75;;;4.60;99.90;;;;;;5030180;28;20196;-71
2022/11/28 04:13:54;;;;;;;4.95;2.53;;;4.50;99.90;;;;;;5029735;28;20224;-70
2022/11/28 04:16:31;;;;;;;2.90;2.65;;;4.50;99.90;;;;;;5029778;28;20205;-72
2022/11/28 04:19:04;;;;;;;3.70;3.40;;;4.40;99.90;;;;;;5015091;28;20258;-70
2022/11/28 04:21:38;;;;;;;2.42;2.15;;;4.40;99.90;;;;;;5018120;28;20197;-70
2022/11/28 04:24:11;;;;;;;2.25;2.05;;;4.40;99.90;;;;;;5029346;28;20224;-70
2022/11/28 04:26:43;;;;;;;1.88;1.75;;;4.50;99.90;;;;;;5029424;28;20204;-71
2022/11/28 04:29:17;;;;;;;1.15;0.82;;;4.50;99.90;;;;;;5029668;28;20207;-70
2022/11/28 04:31:45;;;;;;;1.90;1.77;;;4.50;99.90;;;;;;5028942;28;20205;-70
2022/11/28 04:34:18;;;;;;;2.40;2.20;;;4.50;99.90;;;;;;5027832;28;20247;-70
2022/11/28 04:36:49;;;;;;;1.63;1.50;;;4.50;99.90;;;;;;5029451;28;20673;-70
2022/11/28 04:39:21;;;;;;;3.90;2.63;;;4.50;99.90;;;;;;5029370;28;20288;-70
2022/11/28 04:41:53;;;;;;;1.83;1.73;;;4.50;99.90;;;;;;5028868;28;20192;-70
2022/11/28 04:44:25;;;;;;;1.63;1.00;;;4.40;99.90;;;;;;5028959;28;20572;-71
2022/11/28 04:46:55;;;;;;;2.05;1.95;;;4.50;99.90;;;;;;5029534;28;20236;-71
2022/11/28 04:49:25;;;;;;;1.40;1.40;;;4.50;99.90;;;;;;5029568;28;20706;-71
2022/11/28 04:52:02;;;;;;;3.15;1.63;;;4.60;99.90;;;;;;5029298;28;20297;-71
2022/11/28 04:54:36;;;;;;;4.10;1.83;;;4.60;99.90;;;;;;5029451;28;20212;-71
2022/11/28 04:57:14;;;;;;;1.80;1.70;;;4.60;99.90;;;;;;5029179;28;20206;-72
2022/11/28 04:59:42;;;;;;;1.55;1.45;;;4.70;99.90;;;;;;5018329;28;20207;-71
2022/11/28 05:02:12;;;;;;;1.38;1.27;;;4.70;99.90;;;;;;5028048;28;20197;-71
2022/11/28 05:04:43;;;;;;;2.38;1.38;;;4.70;99.90;;;;;;5029453;28;20212;-71
2022/11/28 05:07:11;;;;;;;1.63;1.25;;;4.80;99.90;;;;;;5028469;28;20227;-71
2022/11/28 05:09:40;;;;;;;4.03;2.00;;;4.80;99.90;;;;;;5029339;28;20212;-72
2022/11/28 05:12:08;;;;;;;2.83;2.63;;;4.80;99.90;;;;;;5028747;28;20205;-71
2022/11/28 05:14:35;;;;;;;3.72;2.20;;;4.80;99.90;;;;;;5029020;28;20744;-71
2022/11/28 05:17:01;;;;;;;2.65;1.90;;;4.80;99.90;;;;;;5028867;28;20239;-71
2022/11/28 05:19:28;;;;;;;3.17;1.98;;;4.80;99.90;;;;;;5028975;28;20209;-71
2022/11/28 05:21:55;;;;;;;1.90;1.80;;;4.80;99.90;;;;;;5028504;28;20208;-71
2022/11/28 05:24:23;;;;;;;1.83;1.73;;;4.80;99.90;;;;;;5029533;28;20276;-71
2022/11/28 05:26:50;;;;;;;1.75;1.65;;;4.90;99.90;;;;;;5028427;28;20199;-71
2022/11/28 05:29:17;;;;;;;2.10;1.95;;;4.90;99.90;;;;;;5029137;28;20549;-71
2022/11/28 05:31:44;;;;;;;2.88;2.60;;;4.90;99.90;;;;;;5017618;28;20194;-72
2022/11/28 05:34:10;;;;;;;2.60;1.83;;;4.90;99.90;;;;;;5016056;28;20221;-72
2022/11/28 05:36:37;;;;;;;0.90;0.90;;;4.90;99.90;;;;;;5023777;28;20189;-71
2022/11/28 05:39:04;;;;;;;1.17;1.10;;;4.90;99.90;;;;;;5022013;28;20205;-72
2022/11/28 05:41:33;;;;;;;2.15;2.05;;;4.90;99.90;;;;;;5027679;28;20219;-71
2022/11/28 05:44:01;;;;;;;3.05;2.33;;;4.90;99.90;;;;;;5028271;28;20196;-71
2022/11/28 05:46:29;;;;;;;3.53;1.50;;;4.90;99.90;;;;;;5022954;28;20245;-71
2022/11/28 05:48:56;;;;;;;1.67;1.27;;;4.90;99.90;;;;;;5012342;28;20203;-72
2022/11/28 05:51:23;;;;;;;2.13;1.65;;;4.80;99.90;;;;;;5012951;28;20223;-73
2022/11/28 05:53:50;;;;;;;3.80;2.67;;;4.90;99.90;;;;;;5012936;28;20259;-72
2022/11/28 05:56:23;;;;;;;1.90;1.50;;;4.90;99.90;;;;;;5014766;28;20211;-74
2022/11/28 05:58:52;;;;;;;1.77;1.55;;;5.00;99.90;;;;;;5012901;28;20294;-73
2022/11/28 06:01:22;;;;;;;2.15;1.95;;;5.00;99.90;;;;;;5012976;28;20219;-73
2022/11/28 06:03:50;;;;;;;1.95;1.70;;;5.00;99.90;;;;;;5009216;28;20287;-72
2022/11/28 06:06:19;;;;;;;2.28;1.52;;;4.90;99.90;;;;;;5011128;28;20840;-71
2022/11/28 06:08:51;;;;;;;3.53;1.85;;;4.90;99.90;;;;;;5009568;28;20204;-72
2022/11/28 06:11:24;;;;;;;1.75;1.65;;;5.00;99.90;;;;;;5010525;28;20215;-71
2022/11/28 06:13:53;;;;;;;3.17;1.20;;;5.00;99.90;;;;;;5016156;28;20229;-72
2022/11/28 06:16:22;;;;;;;2.78;2.38;;;5.00;99.90;;;;;;5015341;28;20682;-73
2022/11/28 06:18:52;;;;;;;2.05;1.90;;;5.00;99.90;;;;;;5016209;28;20263;-71
2022/11/28 06:21:23;;;;;;;4.20;1.55;;;5.00;99.90;;;;;;5016027;28;20304;-72
2022/11/28 06:23:53;;;;;;;2.88;2.03;;;4.90;99.90;;;;;;5020244;28;20208;-73
2022/11/28 06:26:22;;;;;;;2.30;2.20;;;5.00;99.90;;;;;;5014848;28;20251;-72
2022/11/28 06:28:50;;;;;;;1.85;1.00;;;5.00;99.90;;;;;;5014062;28;20228;-71
2022/11/28 06:31:20;;;;;;;2.63;2.28;;;5.00;99.90;;;;;;5006959;28;20213;-71
2022/11/28 06:33:47;;;;;;;2.45;1.80;;;5.10;99.90;;;;;;5014850;28;20686;-72
2022/11/28 06:36:16;;;;;;;1.23;1.13;;;5.10;99.90;;;;;;5014389;28;20205;-72
2022/11/28 06:38:43;;;;;;;2.63;2.42;;;5.10;99.90;;;;;;5015331;28;20197;-72
2022/11/28 06:41:12;;;;;;;2.05;1.85;;;5.10;99.90;;;;;;5018436;28;20201;-72
2022/11/28 06:43:46;;;;;;;1.98;1.63;;;5.10;99.90;;;;;;5019088;28;20206;-74
2022/11/28 06:46:14;;;;;;;1.90;1.80;;;5.10;99.90;;;;;;5018805;28;20784;-73
2022/11/28 06:49:10;;;;;;;6.90;1.83;;;5.10;99.90;;;;;;5014591;28;20287;-73
2022/11/28 06:51:37;;;;;;;1.67;1.25;;;5.10;99.90;;;;;;5017276;28;20205;-71
2022/11/28 06:54:04;;;;;;;1.23;0.98;;;5.20;99.90;;;;;;5011350;28;20235;-71
2022/11/28 06:56:32;;;;;;;3.45;3.25;;;5.10;99.90;;;;;;5011186;28;20267;-71
2022/11/28 06:58:59;;;;;;;1.10;1.02;;;5.20;99.90;;;;;;5011416;28;20201;-72
2022/11/28 07:01:28;;;;;;;2.25;1.70;;;5.20;99.90;;;;;;5017676;28;20208;-72
2022/11/28 07:03:55;;;;;;;1.30;1.20;;;5.20;99.90;;;;;;5023583;28;20224;-72
2022/11/28 07:06:25;;;;;;;2.25;2.15;;;5.20;99.90;;;;;;5020010;28;20300;-71
2022/11/28 07:08:52;;;;;;;2.78;1.08;;;5.20;99.90;;;;;;5017809;28;20204;-72
2022/11/28 07:11:21;;;;;;;3.25;1.45;;;5.20;99.90;;;;;;5019591;28;20200;-72
2022/11/28 07:13:50;;;;;;;3.10;1.65;;;5.30;99.90;;;;;;5018429;28;20229;-72
2022/11/28 07:16:19;;;;;;;2.88;1.95;;;5.20;99.90;;;;;;5014414;28;20212;-71
2022/11/28 07:18:46;;;;;;;4.32;1.88;;;5.30;99.90;;;;;;5019927;28;20204;-72
2022/11/28 07:21:14;;;;;;;1.90;1.80;;;5.30;99.90;;;;;;5023749;28;20196;-71
2022/11/28 07:23:43;;;;;;;1.70;1.60;;;5.40;99.90;;;;;;5018491;28;20201;-72
2022/11/28 07:26:11;;;;;;;2.13;1.73;;;5.40;99.90;;;;;;5021571;28;20783;-71
2022/11/28 07:28:39;;;;;;;2.50;1.30;;;5.40;99.90;;;;;;5019484;28;20280;-73
2022/11/28 07:31:09;;;;;;;3.67;1.25;;;5.50;99.70;;;;;;5022925;28;20203;-72
2022/11/28 07:33:37;;;;;;;1.67;1.55;;;5.30;99.30;;;;;;5030418;28;20222;-72
2022/11/28 07:36:05;;;;;;;1.75;1.42;;;5.30;99.90;;;;;;5030691;28;20203;-71
2022/11/28 07:38:32;;;;;;;5.60;1.75;;;5.30;99.90;;;;;;5045915;28;20594;-71
2022/11/28 07:41:04;;;;;;;2.13;1.92;;;5.20;99.90;;;;;;5033931;28;20562;-72
2022/11/28 07:43:31;;;;;;;2.22;1.90;;;5.20;99.90;;;;;;5040106;28;20204;-72
2022/11/28 07:45:58;;;;;;;1.60;1.50;;;5.20;99.90;;;;;;5031788;28;20242;-71
2022/11/28 07:48:25;;;;;;;2.75;1.63;;;5.30;99.90;;;;;;5044877;28;20303;-72
2022/11/28 07:50:52;;;;;;;2.47;1.55;;;5.40;99.90;;;;;;5029633;28;20603;-72
2022/11/28 07:53:19;;;;;;;5.30;2.60;;;5.30;99.90;;;;;;5029388;28;20197;-71
2022/11/28 07:55:46;;;;;;;3.08;2.15;;;5.30;99.90;;;;;;5029116;28;20624;-72
2022/11/28 07:58:14;;;;;;;8.38;2.65;;;5.40;99.90;;;;;;5030050;28;20283;-72
2022/11/28 08:00:41;;;;;;;3.08;1.63;;;5.40;99.90;;;;;;5018098;28;20200;-72
2022/11/28 08:03:08;;;;;;;2.35;2.17;;;5.50;99.90;;;;;;5026628;28;20291;-73
2022/11/28 08:05:34;;;;;;;1.73;1.50;;;5.60;99.90;;;;;;5029727;28;20205;-72
2022/11/28 08:08:01;;;;;;;4.07;3.17;;;5.70;99.70;;;;;;5027065;28;20200;-72
2022/11/28 08:10:28;;;;;;;3.38;2.30;;;5.70;99.50;;;;;;5028701;28;20284;-72
2022/11/28 08:12:55;;;;;;;3.42;2.40;;;5.70;99.40;;;;;;5029459;28;20236;-72
2022/11/28 08:15:23;;;;;;;1.63;1.48;;;5.70;99.40;;;;;;5029371;28;20315;-73
2022/11/28 08:17:50;;;;;;;1.38;1.05;;;5.70;99.30;;;;;;5029753;28;20287;-72
2022/11/28 08:20:17;;;;;;;1.40;1.20;;;5.80;99.20;;;;;;5029843;28;20282;-72
2022/11/28 08:22:44;;;;;;;1.80;1.60;;;5.80;99.10;;;;;;5029537;28;20316;-72
2022/11/28 08:25:11;;;;;;;4.72;3.30;;;5.80;99.10;;;;;;5028656;28;20294;-72
2022/11/28 08:27:37;;;;;;;3.63;2.67;;;5.80;99.00;;;;;;5016628;28;20205;-72
2022/11/28 08:30:06;;;;;;;2.47;1.70;;;5.80;98.80;;;;;;5019546;28;20204;-72
2022/11/28 08:32:35;;;;;;;2.10;2.00;;;5.90;99.00;;;;;;5028773;28;20208;-71
2022/11/28 08:35:03;;;;;;;1.92;1.83;;;5.90;99.20;;;;;;5028900;28;20315;-72
2022/11/28 08:37:30;;;;;;;2.78;2.50;;;5.90;99.50;;;;;;5023570;28;20268;-72
2022/11/28 08:39:57;;;;;;;3.90;2.50;;;5.90;99.00;;;;;;5020139;28;20275;-72
2022/11/28 08:42:24;;;;;;;2.92;1.38;;;6.00;99.00;;;;;;5023689;28;20280;-73
2022/11/28 08:44:51;;;;;;;2.30;2.10;;;6.00;98.50;;;;;;5012444;28;20240;-73
2022/11/28 08:47:17;;;;;;;2.00;1.48;;;6.10;98.70;;;;;;5028882;28;20295;-73
2022/11/28 08:49:45;;;;;;;3.85;2.35;;;6.10;99.00;;;;;;5028934;28;20287;-73
2022/11/28 08:52:12;;;;;;;1.88;1.77;;;6.10;99.20;;;;;;5025149;28;20193;-73
2022/11/28 08:54:40;;;;;;;1.27;1.17;;;6.10;99.40;;;;;;5029173;28;20314;-73
2022/11/28 08:57:07;;;;;;;2.60;2.33;;;6.10;99.60;;;;;;5012692;28;20224;-74
2022/11/28 08:59:33;;;;;;;5.03;2.92;;;6.10;99.70;;;;;;5014189;28;20777;-73
2022/11/28 09:02:00;;;;;;;2.35;1.35;;;6.10;99.80;;;;;;5019995;28;20200;-73
2022/11/28 09:04:28;;;;;;;2.15;1.95;;;6.10;99.60;;;;;;5027280;28;20314;-73
2022/11/28 09:06:56;;;;;;;1.52;1.42;;;6.20;99.70;;;;;;5025181;28;20296;-73
2022/11/28 09:09:23;;;;;;;3.42;2.30;;;6.30;99.80;;;;;;5026394;28;20287;-72
2022/11/28 09:11:50;;;;;;;2.42;2.22;;;6.60;99.10;;;;;;5022569;28;20192;-73
2022/11/28 09:14:17;;;;;;;1.83;1.58;;;6.60;98.70;;;;;;5023093;28;20273;-72
2022/11/28 09:16:44;;;;;;;3.58;2.63;;;6.60;98.70;;;;;;5020718;28;20193;-73
2022/11/28 09:19:11;;;;;;;1.38;1.38;;;6.50;98.70;;;;;;5019196;28;20286;-74
2022/11/28 09:21:39;;;;;;;2.50;2.15;;;6.50;98.80;;;;;;5024290;28;20220;-74
2022/11/28 09:24:08;;;;;;;3.88;2.70;;;6.50;98.90;;;;;;5028428;28;20232;-72
2022/11/28 09:26:39;;;;;;;1.50;1.40;;;6.50;99.00;;;;;;5016823;28;20296;-74
2022/11/28 09:29:06;;;;;;;1.63;1.50;;;6.50;99.00;;;;;;5019337;28;20714;-73
2022/11/28 09:31:33;;;;;;;2.77;1.53;;;6.60;99.30;;;;;;5019050;28;20219;-74
2022/11/28 09:34:02;;;;;;;2.47;1.83;;;6.60;99.30;;;;;;5019385;28;21678;-73
2022/11/28 09:36:29;;;;;;;1.85;1.75;;;6.60;99.60;;;;;;5027834;28;20208;-73
2022/11/28 09:38:56;;;;;;;1.67;1.57;;;6.60;99.60;;;;;;5028335;28;20200;-73
2022/11/28 09:41:41;;;;;;;4.40;2.10;;;6.70;99.40;;;;;;5027948;28;20727;-73
2022/11/28 09:44:14;;;;;;;1.90;1.63;;;6.70;99.50;;;;;;5019980;28;21004;-73
2022/11/28 09:46:42;;;;;;;2.47;1.87;;;6.70;99.40;;;;;;5027099;28;20627;-73
2022/11/28 09:49:22;;;;;;;2.60;2.40;;;6.70;99.50;;;;;;5028569;28;20738;-74
2022/11/28 09:51:53;;;;;;;2.08;1.80;;;6.70;99.30;;;;;;5011441;28;20655;-73
2022/11/28 09:54:27;;;;;;;7.15;2.63;;;6.70;99.90;;;;;;5028013;28;20231;-72
2022/11/28 09:56:57;;;;;;;3.43;2.53;;;6.70;99.90;;;;;;5025283;28;20196;-73
2022/11/28 09:59:26;;;;;;;2.33;2.13;;;6.80;99.90;;;;;;5021317;28;20727;-73
2022/11/28 10:02:01;;;;;;;4.07;2.50;;;6.80;99.90;;;;;;5015430;28;20671;-73
2022/11/28 10:04:38;;;;;;;4.17;2.73;;;6.80;99.70;;;;;;5015925;28;20717;-73
2022/11/28 10:07:12;;;;;;;2.90;2.70;;;6.90;99.60;;;;;;5008741;28;20729;-73
2022/11/28 10:09:51;;;;;;;1.80;1.70;;;6.90;99.30;;;;;;5017980;28;20623;-74
2022/11/28 10:12:32;;;;;;;2.35;1.67;;;6.80;99.70;;;;;;5024353;28;20632;-74
2022/11/28 10:15:27;;;;;;;11.93;3.27;;;6.80;99.90;;;;;;5028095;28;20229;-74
2022/11/28 10:18:05;;;;;;;5.13;4.07;;;6.80;99.90;;;;;;5019131;28;20738;-74
2022/11/28 10:20:39;;;;;;;3.22;2.92;;;6.90;99.90;;;;;;5028264;28;20637;-75
2022/11/28 10:23:16;;;;;;;14.70;2.92;;;7.00;99.90;;;;;;5016182;28;20192;-75
2022/11/28 10:25:49;;;;;;;3.60;3.40;;;7.00;99.70;;;;;;5025564;28;20211;-75
2022/11/28 10:28:22;;;;;;;3.20;2.80;;;7.00;99.90;;;;;;5026963;28;20204;-75
2022/11/28 10:30:55;;;;;;;3.33;2.37;;;7.00;99.90;;;;;;5008597;28;21050;-74
2022/11/28 10:33:28;;;;;;;2.73;2.53;;;7.00;99.80;;;;;;5025269;28;20635;-75
2022/11/28 10:35:57;;;;;;;3.83;3.13;;;7.00;99.90;;;;;;5020928;28;20671;-74
2022/11/28 10:38:26;;;;;;;3.85;2.60;;;7.00;99.80;;;;;;5021196;28;20630;-74
2022/11/28 10:41:00;;;;;;;3.20;2.03;;;7.10;99.60;;;;;;5023957;28;20216;-73
2022/11/28 10:43:38;;;;;;;3.13;2.43;;;7.10;99.90;;;;;;5037788;28;20626;-73
2022/11/28 10:46:26;;;;;;;4.60;2.97;;;7.10;99.90;;;;;;5036694;28;20725;-73
2022/11/28 10:48:59;;;;;;;4.80;3.30;;;7.20;99.90;;;;;;5027790;28;21227;-73
2022/11/28 10:51:38;;;;;;;3.93;3.10;;;7.20;99.90;;;;;;5022307;28;20734;-73
2022/11/28 10:54:18;;;;;;;3.97;3.37;;;7.20;99.80;;;;;;5027193;28;20651;-73
2022/11/28 10:56:57;;;;;;;4.10;2.93;;;7.30;99.20;;;;;;5026727;28;20921;-72
2022/11/28 10:59:38;;;;;;;3.57;3.30;;;7.30;99.50;;;;;;5019790;28;20594;-72
2022/11/28 11:02:31;;;;;;;4.10;3.70;;;7.30;99.40;;;;;;5027402;28;20642;-73
2022/11/28 11:04:58;;;;;;;3.60;2.20;;;7.50;98.80;;;;;;5027823;28;21048;-73
2022/11/28 11:07:29;;;;;;;3.97;2.80;;;7.50;98.60;;;;;;5029479;28;20643;-72
2022/11/28 11:09:57;;;;;;;5.20;4.03;;;7.40;99.00;;;;;;5035054;28;20614;-73
2022/11/28 11:12:30;;;;;;;9.83;2.87;;;7.30;99.50;;;;;;5030676;28;20995;-73
2022/11/28 11:14:58;;;;;;;2.53;2.23;;;7.30;99.40;;;;;;5041612;28;21268;-73
2022/11/28 11:17:28;;;;;;;5.27;3.30;;;7.40;99.40;;;;;;5035662;28;20646;-73
2022/11/28 11:19:55;;;;;;;3.23;2.73;;;7.40;99.30;;;;;;5036962;28;20658;-72
2022/11/28 11:22:25;;;;;;;10.43;3.00;;;7.40;99.50;;;;;;5035159;28;20651;-72
2022/11/28 11:25:07;;;;;;;1.83;1.73;;;7.40;99.90;;;;;;5045117;28;20637;-73
2022/11/28 11:27:36;;;;;;;3.20;2.93;;;7.40;99.90;;;;;;5030529;28;20637;-73
2022/11/28 11:30:22;;;;;;;9.80;3.30;;;7.60;99.90;;;;;;5030734;28;20625;-73
2022/11/28 11:32:49;;;;;;;3.80;3.50;;;7.50;99.90;;;;;;5009676;28;20625;-73
2022/11/28 11:35:20;;;;;;;2.83;2.30;;;7.50;99.90;;;;;;5027148;28;21248;-73
2022/11/28 11:37:47;;;;;;;3.90;1.90;;;;;;;;;;5027976;28;21230;-73
2022/11/28 11:40:26;;;;;;;3.67;3.13;;;7.50;99.90;;;;;;5015723;28;21057;-72
2022/11/28 11:42:56;;;;;;;2.80;2.57;;;7.40;99.90;;;;;;5029676;28;20685;-74
2022/11/28 11:45:27;;;;;;;4.80;2.93;;;7.50;99.90;;;;;;5030802;28;20626;-73
2022/11/28 11:47:54;;;;;;;6.80;4.00;;;7.50;99.90;;;;;;5024761;28;21173;-73
2022/11/28 11:50:23;;;;;;;4.87;3.83;;;7.50;99.90;;;;;;5030749;28;20627;-73
2022/11/28 11:53:07;;;;;;;4.33;3.20;;;7.40;99.90;;;;;;5030322;28;20927;-73
2022/11/28 11:55:43;;;;;;;5.60;3.27;;;7.40;99.90;;;;;;5025374;28;20667;-73
2022/11/28 11:58:14;;;;;;;6.03;4.40;;;7.30;99.90;;;;;;5023815;28;20698;-73
2022/11/28 12:00:44;;;;;;;7.10;4.10;;;7.50;99.90;;;;;;5030814;28;20618;-72
2022/11/28 12:03:20;;;;;;;3.80;2.30;;;7.40;99.90;;;;;;5029538;28;20623;-72
2022/11/28 12:05:52;;;;;;;4.40;3.07;;;7.50;99.90;;;;;;5019344;28;20619;-73
2022/11/28 12:08:30;;;;;;;7.53;3.20;;;7.40;99.90;;;;;;5029930;28;20730;-73
2022/11/28 12:11:07;;;;;;;2.67;2.47;;;7.40;99.90;;;;;;5030387;28;21278;-73
2022/11/28 12:13:34;;;;;;;2.70;2.40;;;7.40;99.90;;;;;;5029860;28;20742;-73
2022/11/28 12:16:12;;;;;;;3.57;3.30;;;7.40;99.90;;;;;;5030223;28;20690;-72
2022/11/28 12:18:51;;;;;;;7.37;2.97;;;7.50;99.90;;;;;;5028712;28;20619;-72
2022/11/28 12:21:23;;;;;;;10.17;5.13;;;7.50;99.90;;;;;;5025764;28;21186;-72
2022/11/28 12:24:04;;;;;;;10.23;5.10;;;7.60;99.90;;;;;;5029406;28;20627;-73
2022/11/28 12:26:39;;;;;;;3.67;3.37;;;7.70;99.90;;;;;;5027997;28;20623;-73
2022/11/28 12:29:30;;;;;;;4.90;3.37;;;7.60;99.90;;;;;;5027996;28;20715;-72
2022/11/28 12:32:14;;;;;;;7.43;5.13;;;7.70;99.90;;;;;;5026478;28;20818;-72
2022/11/28 12:34:53;;;;;;;3.80;3.50;;;7.70;99.90;;;;;;5028008;28;20619;-73
2022/11/28 12:37:30;;;;;;;6.50;3.73;;;7.80;99.90;;;;;;5027110;28;20623;-72
2022/11/28 12:40:02;;;;;;;13.63;2.93;;;7.90;99.90;;;;;;5027524;28;20623;-73
2022/11/28 12:42:47;;;;;;;5.67;4.10;;;7.90;99.90;;;;;;5026692;28;20632;-72
2022/11/28 12:45:27;;;;;;;9.17;4.80;;;7.80;99.90;;;;;;5028680;28;20629;-72
2022/11/28 12:48:09;;;;;;;4.73;4.03;;;7.80;99.90;;;;;;5025967;28;20615;-73
2022/11/28 12:50:39;;;;;;;5.47;3.80;;;7.80;99.90;;;;;;5017006;28;20635;-72
2022/11/28 12:53:23;;;;;;;3.00;2.70;;;7.80;99.90;;;;;;5025670;28;20631;-73
2022/11/28 12:55:58;;;;;;;3.70;3.40;;;7.80;99.90;;;;;;5027858;28;20655;-73
2022/11/28 12:58:30;;;;;;;8.57;5.53;;;7.80;99.90;;;;;;5028092;28;20734;-72
2022/11/28 13:01:10;;;;;;;6.07;4.27;;;7.90;99.90;;;;;;5028132;28;20722;-73
2022/11/28 13:03:50;;;;;;;6.90;4.30;;;7.90;99.90;;;;;;5027583;28;20635;-73
2022/11/28 13:06:31;;;;;;;6.87;5.03;;;8.00;99.90;;;;;;5027641;28;20669;-73
2022/11/28 13:09:17;;;;;;;4.80;3.97;;;8.00;99.90;;;;;;5028278;28;20627;-73
2022/11/28 13:11:55;;;;;;;7.10;5.03;;;8.10;99.90;;;;;;5014603;28;20623;-72
2022/11/28 13:14:31;;;;;;;7.17;5.93;;;8.10;99.90;;;;;;5027323;28;21298;-73
2022/11/28 13:17:10;;;;;;;3.80;3.47;;;8.20;99.90;;;;;;5025723;28;20689;-73
2022/11/28 13:19:49;;;;;;;8.13;4.03;;;8.30;99.90;;;;;;5028048;28;21023;-73